sensor_id;sensor_type;location;lat;lon;timestamp;pressure;altitude;pressure_sealevel;temperature;humidity
63447;BME280;49577;49.872;6.190;2023-07-29T00:00:13;98785.80;;;18.75;93.70
63447;BME280;49577;49.872;6.190;2023-07-29T00:02:38;98788.90;;;18.74;93.74
63447;BME280;49577;49.872;6.190;2023-07-29T00:05:03;98789.09;;;18.74;93.82
63447;BME280;49577;49.872;6.190;2023-07-29T00:07:29;98788.44;;;18.73;93.87
63447;BME280;49577;49.872;6.190;2023-07-29T00:09:54;98787.25;;;18.73;93.92
63447;BME280;49577;49.872;6.190;2023-07-29T00:12:19;98787.65;;;18.73;93.91
63447;BME280;49577;49.872;6.190;2023-07-29T00:14:44;98778.54;;;18.72;94.07
63447;BME280;49577;49.872;6.190;2023-07-29T00:17:10;98774.75;;;18.71;94.09
63447;BME280;49577;49.872;6.190;2023-07-29T00:19:35;98779.52;;;18.71;94.21
63447;BME280;49577;49.872;6.190;2023-07-29T00:22:00;98781.86;;;18.69;94.20
63447;BME280;49577;49.872;6.190;2023-07-29T00:24:25;98784.45;;;18.66;94.39
63447;BME280;49577;49.872;6.190;2023-07-29T00:26:50;98775.30;;;18.62;94.56
63447;BME280;49577;49.872;6.190;2023-07-29T00:29:16;98773.07;;;18.60;94.63
63447;BME280;49577;49.872;6.190;2023-07-29T00:31:41;98773.93;;;18.57;94.66
63447;BME280;49577;49.872;6.190;2023-07-29T00:34:06;98769.10;;;18.54;94.88
63447;BME280;49577;49.872;6.190;2023-07-29T00:36:31;98773.33;;;18.53;95.03
63447;BME280;49577;49.872;6.190;2023-07-29T00:38:56;98768.14;;;18.52;95.18
63447;BME280;49577;49.872;6.190;2023-07-29T00:41:22;98771.41;;;18.51;95.26
63447;BME280;49577;49.872;6.190;2023-07-29T00:43:47;98768.88;;;18.50;95.43
63447;BME280;49577;49.872;6.190;2023-07-29T00:46:12;98770.42;;;18.51;95.54
63447;BME280;49577;49.872;6.190;2023-07-29T00:48:38;98768.80;;;18.51;95.64
63447;BME280;49577;49.872;6.190;2023-07-29T00:51:03;98770.02;;;18.53;95.75
63447;BME280;49577;49.872;6.190;2023-07-29T00:53:28;98766.94;;;18.53;95.68
63447;BME280;49577;49.872;6.190;2023-07-29T00:55:53;98754.73;;;18.53;95.68
63447;BME280;49577;49.872;6.190;2023-07-29T00:58:19;98752.48;;;18.53;95.74
63447;BME280;49577;49.872;6.190;2023-07-29T01:00:44;98749.66;;;18.53;95.64
63447;BME280;49577;49.872;6.190;2023-07-29T01:03:09;98749.92;;;18.54;95.75
63447;BME280;49577;49.872;6.190;2023-07-29T01:05:46;98744.80;;;18.54;95.73
63447;BME280;49577;49.872;6.190;2023-07-29T01:08:19;98743.73;;;18.54;95.79
63447;BME280;49577;49.872;6.190;2023-07-29T01:10:49;98746.35;;;18.52;95.76
63447;BME280;49577;49.872;6.190;2023-07-29T01:13:22;98742.08;;;18.49;95.73
63447;BME280;49577;49.872;6.190;2023-07-29T01:15:55;98736.28;;;18.45;95.85
63447;BME280;49577;49.872;6.190;2023-07-29T01:18:22;98733.80;;;18.42;95.99
63447;BME280;49577;49.872;6.190;2023-07-29T01:20:47;98735.39;;;18.39;96.08
63447;BME280;49577;49.872;6.190;2023-07-29T01:23:13;98739.09;;;18.36;96.30
63447;BME280;49577;49.872;6.190;2023-07-29T01:25:38;98735.77;;;18.36;96.50
63447;BME280;49577;49.872;6.190;2023-07-29T01:28:04;98737.15;;;18.36;96.61
63447;BME280;49577;49.872;6.190;2023-07-29T01:30:30;98741.83;;;18.37;96.69
63447;BME280;49577;49.872;6.190;2023-07-29T01:32:59;98744.38;;;18.38;96.82
63447;BME280;49577;49.872;6.190;2023-07-29T01:35:39;98745.89;;;18.38;96.92
63447;BME280;49577;49.872;6.190;2023-07-29T01:38:13;98748.12;;;18.39;96.97
63447;BME280;49577;49.872;6.190;2023-07-29T01:40:39;98746.84;;;18.39;96.92
63447;BME280;49577;49.872;6.190;2023-07-29T01:43:05;98742.20;;;18.40;96.94
63447;BME280;49577;49.872;6.190;2023-07-29T01:45:32;98743.45;;;18.40;96.98
63447;BME280;49577;49.872;6.190;2023-07-29T01:48:00;98743.42;;;18.40;96.88
63447;BME280;49577;49.872;6.190;2023-07-29T01:50:25;98745.78;;;18.39;96.87
63447;BME280;49577;49.872;6.190;2023-07-29T01:52:50;98744.88;;;18.40;96.97
63447;BME280;49577;49.872;6.190;2023-07-29T01:55:16;98740.63;;;18.38;96.84
63447;BME280;49577;49.872;6.190;2023-07-29T01:57:41;98741.37;;;18.36;96.91
63447;BME280;49577;49.872;6.190;2023-07-29T02:00:07;98739.96;;;18.34;97.05
63447;BME280;49577;49.872;6.190;2023-07-29T02:02:33;98735.45;;;18.33;97.12
63447;BME280;49577;49.872;6.190;2023-07-29T02:04:58;98736.63;;;18.33;97.20
63447;BME280;49577;49.872;6.190;2023-07-29T02:07:23;98737.58;;;18.30;97.29
63447;BME280;49577;49.872;6.190;2023-07-29T02:09:51;98730.89;;;18.30;97.59
63447;BME280;49577;49.872;6.190;2023-07-29T02:12:16;98725.04;;;18.30;97.51
63447;BME280;49577;49.872;6.190;2023-07-29T02:14:41;98723.10;;;18.30;97.71
63447;BME280;49577;49.872;6.190;2023-07-29T02:17:07;98716.04;;;18.30;97.62
63447;BME280;49577;49.872;6.190;2023-07-29T02:19:32;98714.39;;;18.27;97.60
63447;BME280;49577;49.872;6.190;2023-07-29T02:21:57;98716.17;;;18.26;97.69
63447;BME280;49577;49.872;6.190;2023-07-29T02:24:22;98723.88;;;18.23;97.65
63447;BME280;49577;49.872;6.190;2023-07-29T02:26:48;98722.01;;;18.21;97.56
63447;BME280;49577;49.872;6.190;2023-07-29T02:29:13;98728.15;;;18.18;97.88
63447;BME280;49577;49.872;6.190;2023-07-29T02:31:38;98726.77;;;18.16;98.09
63447;BME280;49577;49.872;6.190;2023-07-29T02:34:03;98721.74;;;18.15;98.12
63447;BME280;49577;49.872;6.190;2023-07-29T02:36:29;98712.38;;;18.15;98.35
63447;BME280;49577;49.872;6.190;2023-07-29T02:38:54;98695.70;;;18.16;98.42
63447;BME280;49577;49.872;6.190;2023-07-29T02:41:19;98692.58;;;18.15;98.37
63447;BME280;49577;49.872;6.190;2023-07-29T02:43:47;98689.57;;;18.15;98.29
63447;BME280;49577;49.872;6.190;2023-07-29T02:46:13;98690.67;;;18.13;98.25
63447;BME280;49577;49.872;6.190;2023-07-29T02:48:38;98691.12;;;18.12;98.30
63447;BME280;49577;49.872;6.190;2023-07-29T02:51:03;98699.61;;;18.10;98.33
63447;BME280;49577;49.872;6.190;2023-07-29T02:53:28;98703.46;;;18.09;98.50
63447;BME280;49577;49.872;6.190;2023-07-29T02:55:54;98705.35;;;18.10;98.65
63447;BME280;49577;49.872;6.190;2023-07-29T02:58:19;98703.85;;;18.11;98.64
63447;BME280;49577;49.872;6.190;2023-07-29T03:00:44;98700.94;;;18.10;98.61
63447;BME280;49577;49.872;6.190;2023-07-29T03:03:09;98698.13;;;18.10;98.75
63447;BME280;49577;49.872;6.190;2023-07-29T03:05:35;98697.27;;;18.09;98.73
63447;BME280;49577;49.872;6.190;2023-07-29T03:08:00;98700.05;;;18.10;98.96
63447;BME280;49577;49.872;6.190;2023-07-29T03:10:26;98702.16;;;18.10;98.93
63447;BME280;49577;49.872;6.190;2023-07-29T03:12:53;98707.23;;;18.10;98.96
63447;BME280;49577;49.872;6.190;2023-07-29T03:15:18;98710.80;;;18.11;98.98
63447;BME280;49577;49.872;6.190;2023-07-29T03:17:43;98708.84;;;18.14;99.01
63447;BME280;49577;49.872;6.190;2023-07-29T03:20:09;98708.79;;;18.16;98.91
63447;BME280;49577;49.872;6.190;2023-07-29T03:22:34;98716.27;;;18.17;98.90
63447;BME280;49577;49.872;6.190;2023-07-29T03:24:59;98718.30;;;18.17;98.92
63447;BME280;49577;49.872;6.190;2023-07-29T03:27:24;98724.73;;;18.18;98.86
63447;BME280;49577;49.872;6.190;2023-07-29T03:29:49;98729.08;;;18.19;98.94
63447;BME280;49577;49.872;6.190;2023-07-29T03:32:15;98725.83;;;18.20;98.91
63447;BME280;49577;49.872;6.190;2023-07-29T03:34:40;98725.88;;;18.21;99.09
63447;BME280;49577;49.872;6.190;2023-07-29T03:37:05;98721.03;;;18.22;99.14
63447;BME280;49577;49.872;6.190;2023-07-29T03:39:31;98715.38;;;18.22;99.24
63447;BME280;49577;49.872;6.190;2023-07-29T03:41:56;98719.01;;;18.23;99.39
63447;BME280;49577;49.872;6.190;2023-07-29T03:44:22;98731.80;;;18.22;99.31
63447;BME280;49577;49.872;6.190;2023-07-29T03:46:47;98729.30;;;18.20;99.28
63447;BME280;49577;49.872;6.190;2023-07-29T03:49:12;98722.60;;;18.20;99.41
63447;BME280;49577;49.872;6.190;2023-07-29T03:51:37;98729.53;;;18.20;99.33
63447;BME280;49577;49.872;6.190;2023-07-29T03:54:02;98737.13;;;18.18;99.41
63447;BME280;49577;49.872;6.190;2023-07-29T03:56:28;98738.79;;;18.18;99.62
63447;BME280;49577;49.872;6.190;2023-07-29T03:58:53;98739.40;;;18.17;99.77
63447;BME280;49577;49.872;6.190;2023-07-29T04:01:18;98742.61;;;18.16;99.97
63447;BME280;49577;49.872;6.190;2023-07-29T04:03:47;98741.09;;;18.16;99.96
63447;BME280;49577;49.872;6.190;2023-07-29T04:06:12;98738.61;;;18.16;100.00
63447;BME280;49577;49.872;6.190;2023-07-29T04:08:37;98731.55;;;18.16;100.00
63447;BME280;49577;49.872;6.190;2023-07-29T04:11:02;98723.23;;;18.14;99.98
63447;BME280;49577;49.872;6.190;2023-07-29T04:13:28;98728.77;;;18.14;100.00
63447;BME280;49577;49.872;6.190;2023-07-29T04:15:53;98728.80;;;18.12;100.00
63447;BME280;49577;49.872;6.190;2023-07-29T04:18:18;98736.89;;;18.09;99.78
63447;BME280;49577;49.872;6.190;2023-07-29T04:20:43;98740.27;;;18.06;99.60
63447;BME280;49577;49.872;6.190;2023-07-29T04:23:08;98745.92;;;18.02;99.21
63447;BME280;49577;49.872;6.190;2023-07-29T04:25:34;98747.84;;;17.98;98.72
63447;BME280;49577;49.872;6.190;2023-07-29T04:27:59;98748.61;;;17.94;98.26
63447;BME280;49577;49.872;6.190;2023-07-29T04:30:24;98745.22;;;17.89;97.05
63447;BME280;49577;49.872;6.190;2023-07-29T04:32:49;98734.12;;;17.84;95.95
63447;BME280;49577;49.872;6.190;2023-07-29T04:35:15;98727.94;;;17.77;95.32
63447;BME280;49577;49.872;6.190;2023-07-29T04:37:40;98735.13;;;17.74;95.58
63447;BME280;49577;49.872;6.190;2023-07-29T04:40:06;98737.45;;;17.74;96.26
63447;BME280;49577;49.872;6.190;2023-07-29T04:42:31;98734.23;;;17.74;96.67
63447;BME280;49577;49.872;6.190;2023-07-29T04:44:57;98714.63;;;17.74;96.69
63447;BME280;49577;49.872;6.190;2023-07-29T04:47:22;98713.48;;;17.73;96.81
63447;BME280;49577;49.872;6.190;2023-07-29T04:49:47;98702.83;;;17.72;97.05
63447;BME280;49577;49.872;6.190;2023-07-29T04:52:13;98703.35;;;17.72;97.38
63447;BME280;49577;49.872;6.190;2023-07-29T04:54:38;98714.91;;;17.72;97.29
63447;BME280;49577;49.872;6.190;2023-07-29T04:57:03;98727.10;;;17.69;97.18
63447;BME280;49577;49.872;6.190;2023-07-29T04:59:28;98731.47;;;17.67;97.08
63447;BME280;49577;49.872;6.190;2023-07-29T05:01:54;98735.02;;;17.63;97.07
63447;BME280;49577;49.872;6.190;2023-07-29T05:04:19;98732.88;;;17.59;97.15
63447;BME280;49577;49.872;6.190;2023-07-29T05:06:44;98723.59;;;17.54;97.29
63447;BME280;49577;49.872;6.190;2023-07-29T05:09:15;98724.44;;;17.50;97.48
63447;BME280;49577;49.872;6.190;2023-07-29T05:11:41;98717.98;;;17.48;97.43
63447;BME280;49577;49.872;6.190;2023-07-29T05:14:06;98724.11;;;17.47;97.46
63447;BME280;49577;49.872;6.190;2023-07-29T05:16:31;98727.86;;;17.46;97.59
63447;BME280;49577;49.872;6.190;2023-07-29T05:18:57;98736.64;;;17.44;97.20
63447;BME280;49577;49.872;6.190;2023-07-29T05:21:22;98741.80;;;17.44;97.46
63447;BME280;49577;49.872;6.190;2023-07-29T05:23:47;98741.54;;;17.45;97.91
63447;BME280;49577;49.872;6.190;2023-07-29T05:26:12;98743.87;;;17.47;97.99
63447;BME280;49577;49.872;6.190;2023-07-29T05:28:37;98747.71;;;17.49;97.72
63447;BME280;49577;49.872;6.190;2023-07-29T05:31:03;98747.52;;;17.54;98.28
63447;BME280;49577;49.872;6.190;2023-07-29T05:33:28;98750.50;;;17.62;98.45
63447;BME280;49577;49.872;6.190;2023-07-29T05:35:53;98759.99;;;17.71;98.34
63447;BME280;49577;49.872;6.190;2023-07-29T05:38:19;98760.20;;;17.80;98.24
63447;BME280;49577;49.872;6.190;2023-07-29T05:40:44;98759.65;;;17.87;98.22
63447;BME280;49577;49.872;6.190;2023-07-29T05:43:09;98761.30;;;17.96;97.91
63447;BME280;49577;49.872;6.190;2023-07-29T05:45:34;98769.07;;;17.99;97.26
63447;BME280;49577;49.872;6.190;2023-07-29T05:48:00;98770.67;;;17.96;96.46
63447;BME280;49577;49.872;6.190;2023-07-29T05:50:25;98779.77;;;17.93;96.34
63447;BME280;49577;49.872;6.190;2023-07-29T05:52:50;98784.48;;;17.90;96.26
63447;BME280;49577;49.872;6.190;2023-07-29T05:55:15;98787.81;;;17.90;96.30
63447;BME280;49577;49.872;6.190;2023-07-29T05:57:41;98787.12;;;17.93;96.55
63447;BME280;49577;49.872;6.190;2023-07-29T06:00:06;98779.88;;;17.97;96.33
63447;BME280;49577;49.872;6.190;2023-07-29T06:02:31;98774.79;;;18.02;96.03
63447;BME280;49577;49.872;6.190;2023-07-29T06:04:56;98768.30;;;18.10;95.68
63447;BME280;49577;49.872;6.190;2023-07-29T06:07:22;98775.70;;;18.20;95.01
63447;BME280;49577;49.872;6.190;2023-07-29T06:09:47;98787.89;;;18.49;94.81
63447;BME280;49577;49.872;6.190;2023-07-29T06:12:12;98802.44;;;19.48;94.05
63447;BME280;49577;49.872;6.190;2023-07-29T06:14:38;98804.02;;;20.12;91.27
63447;BME280;49577;49.872;6.190;2023-07-29T06:17:03;98800.30;;;20.35;88.88
63447;BME280;49577;49.872;6.190;2023-07-29T06:19:28;98798.61;;;20.37;87.46
63447;BME280;49577;49.872;6.190;2023-07-29T06:21:55;98797.67;;;20.26;86.64
63447;BME280;49577;49.872;6.190;2023-07-29T06:24:20;98800.70;;;20.12;86.14
63447;BME280;49577;49.872;6.190;2023-07-29T06:26:45;98792.39;;;20.03;86.17
63447;BME280;49577;49.872;6.190;2023-07-29T06:29:10;98786.67;;;20.08;86.03
63447;BME280;49577;49.872;6.190;2023-07-29T06:31:36;98784.45;;;20.68;85.50
63447;BME280;49577;49.872;6.190;2023-07-29T06:34:01;98787.10;;;20.86;84.07
63447;BME280;49577;49.872;6.190;2023-07-29T06:36:26;98784.19;;;20.89;83.03
63447;BME280;49577;49.872;6.190;2023-07-29T06:38:51;98786.90;;;20.87;82.05
63447;BME280;49577;49.872;6.190;2023-07-29T06:41:17;98791.95;;;20.81;81.44
63447;BME280;49577;49.872;6.190;2023-07-29T06:43:42;98802.38;;;20.68;81.20
63447;BME280;49577;49.872;6.190;2023-07-29T06:46:07;98831.33;;;20.51;82.10
63447;BME280;49577;49.872;6.190;2023-07-29T06:48:32;98840.64;;;20.19;81.67
63447;BME280;49577;49.872;6.190;2023-07-29T06:50:58;98836.90;;;19.99;82.16
63447;BME280;49577;49.872;6.190;2023-07-29T06:53:25;98840.66;;;19.80;83.11
63447;BME280;49577;49.872;6.190;2023-07-29T06:55:51;98838.95;;;19.70;83.45
63447;BME280;49577;49.872;6.190;2023-07-29T06:58:16;98832.41;;;19.59;82.90
63447;BME280;49577;49.872;6.190;2023-07-29T07:00:41;98838.74;;;19.59;82.85
63447;BME280;49577;49.872;6.190;2023-07-29T07:03:06;98844.60;;;19.77;82.66
63447;BME280;49577;49.872;6.190;2023-07-29T07:05:32;98845.20;;;19.88;81.99
63447;BME280;49577;49.872;6.190;2023-07-29T07:07:57;98844.00;;;19.79;81.27
63447;BME280;49577;49.872;6.190;2023-07-29T07:10:22;98844.51;;;19.66;81.47
63447;BME280;49577;49.872;6.190;2023-07-29T07:12:47;98851.96;;;19.58;81.84
63447;BME280;49577;49.872;6.190;2023-07-29T07:15:12;98851.59;;;19.51;81.97
63447;BME280;49577;49.872;6.190;2023-07-29T07:17:38;98849.19;;;19.42;82.16
63447;BME280;49577;49.872;6.190;2023-07-29T07:20:03;98852.52;;;19.30;82.32
63447;BME280;49577;49.872;6.190;2023-07-29T07:22:28;98854.27;;;19.20;82.50
63447;BME280;49577;49.872;6.190;2023-07-29T07:24:53;98857.73;;;19.13;82.79
63447;BME280;49577;49.872;6.190;2023-07-29T07:27:19;98860.31;;;19.10;83.29
63447;BME280;49577;49.872;6.190;2023-07-29T07:29:44;98860.81;;;19.09;83.55
63447;BME280;49577;49.872;6.190;2023-07-29T07:32:09;98854.79;;;19.04;83.56
63447;BME280;49577;49.872;6.190;2023-07-29T07:34:34;98854.26;;;19.03;84.18
63447;BME280;49577;49.872;6.190;2023-07-29T07:37:00;98850.54;;;19.04;84.20
63447;BME280;49577;49.872;6.190;2023-07-29T07:39:25;98836.98;;;19.04;82.70
63447;BME280;49577;49.872;6.190;2023-07-29T07:41:51;98838.55;;;19.37;83.32
63447;BME280;49577;49.872;6.190;2023-07-29T07:44:16;98836.08;;;20.80;81.70
63447;BME280;49577;49.872;6.190;2023-07-29T07:46:43;98837.44;;;21.58;79.24
63447;BME280;49577;49.872;6.190;2023-07-29T07:49:08;98843.08;;;22.58;77.27
63447;BME280;49577;49.872;6.190;2023-07-29T07:51:33;98846.02;;;23.68;74.28
63447;BME280;49577;49.872;6.190;2023-07-29T07:53:58;98841.92;;;24.12;71.82
63447;BME280;49577;49.872;6.190;2023-07-29T07:56:23;98841.01;;;24.33;70.21
63447;BME280;49577;49.872;6.190;2023-07-29T07:58:48;98839.45;;;24.87;68.86
63447;BME280;49577;49.872;6.190;2023-07-29T08:01:14;98835.82;;;25.07;68.27
63447;BME280;49577;49.872;6.190;2023-07-29T08:03:39;98837.88;;;25.23;67.75
63447;BME280;49577;49.872;6.190;2023-07-29T08:06:05;98837.55;;;25.53;66.74
63447;BME280;49577;49.872;6.190;2023-07-29T08:08:30;98836.11;;;26.51;63.81
63447;BME280;49577;49.872;6.190;2023-07-29T08:10:56;98838.91;;;27.21;62.29
63447;BME280;49577;49.872;6.190;2023-07-29T08:13:22;98840.86;;;27.52;60.74
63447;BME280;49577;49.872;6.190;2023-07-29T08:15:48;98839.41;;;27.55;59.27
63447;BME280;49577;49.872;6.190;2023-07-29T08:18:13;98840.73;;;27.09;59.30
63447;BME280;49577;49.872;6.190;2023-07-29T08:20:39;98840.42;;;26.99;58.75
63447;BME280;49577;49.872;6.190;2023-07-29T08:23:04;98835.84;;;27.71;56.85
63447;BME280;49577;49.872;6.190;2023-07-29T08:25:29;98837.71;;;28.54;54.76
63447;BME280;49577;49.872;6.190;2023-07-29T08:27:54;98838.03;;;28.64;54.28
63447;BME280;49577;49.872;6.190;2023-07-29T08:30:20;98837.77;;;28.31;54.10
63447;BME280;49577;49.872;6.190;2023-07-29T08:32:45;98834.64;;;27.93;54.81
63447;BME280;49577;49.872;6.190;2023-07-29T08:35:10;98826.14;;;27.74;54.79
63447;BME280;49577;49.872;6.190;2023-07-29T08:37:35;98825.91;;;27.79;53.66
63447;BME280;49577;49.872;6.190;2023-07-29T08:40:00;98828.51;;;28.03;53.20
63447;BME280;49577;49.872;6.190;2023-07-29T08:42:28;98824.81;;;27.90;53.88
63447;BME280;49577;49.872;6.190;2023-07-29T08:44:54;98824.59;;;27.80;53.68
63447;BME280;49577;49.872;6.190;2023-07-29T08:47:20;98821.96;;;27.94;52.82
63447;BME280;49577;49.872;6.190;2023-07-29T08:49:45;98821.66;;;28.10;52.60
63447;BME280;49577;49.872;6.190;2023-07-29T08:52:11;98817.02;;;28.70;51.36
63447;BME280;49577;49.872;6.190;2023-07-29T08:54:37;98817.50;;;29.04;50.79
63447;BME280;49577;49.872;6.190;2023-07-29T08:57:02;98819.23;;;29.81;50.35
63447;BME280;49577;49.872;6.190;2023-07-29T08:59:28;98816.85;;;30.32;48.39
63447;BME280;49577;49.872;6.190;2023-07-29T09:01:54;98817.27;;;30.78;46.91
63447;BME280;49577;49.872;6.190;2023-07-29T09:04:21;98818.95;;;31.10;45.92
63447;BME280;49577;49.872;6.190;2023-07-29T09:06:48;98820.36;;;31.22;45.11
63447;BME280;49577;49.872;6.190;2023-07-29T09:09:15;98821.48;;;31.76;44.28
63447;BME280;49577;49.872;6.190;2023-07-29T09:11:40;98821.11;;;32.24;42.97
63447;BME280;49577;49.872;6.190;2023-07-29T09:14:05;98818.23;;;32.77;42.36
63447;BME280;49577;49.872;6.190;2023-07-29T09:16:30;98809.01;;;33.43;40.73
63447;BME280;49577;49.872;6.190;2023-07-29T09:18:56;98807.92;;;33.66;40.11
63447;BME280;49577;49.872;6.190;2023-07-29T09:21:25;98810.92;;;33.66;39.47
63447;BME280;49577;49.872;6.190;2023-07-29T09:23:51;98808.46;;;34.12;37.63
63447;BME280;49577;49.872;6.190;2023-07-29T09:26:26;98803.85;;;34.62;36.37
63447;BME280;49577;49.872;6.190;2023-07-29T09:28:52;98802.58;;;34.97;36.71
63447;BME280;49577;49.872;6.190;2023-07-29T09:31:24;98803.27;;;35.08;35.75
63447;BME280;49577;49.872;6.190;2023-07-29T09:33:50;98799.73;;;34.12;35.27
63447;BME280;49577;49.872;6.190;2023-07-29T09:36:20;98805.28;;;32.71;37.00
63447;BME280;49577;49.872;6.190;2023-07-29T09:38:46;98814.20;;;31.42;39.15
63447;BME280;49577;49.872;6.190;2023-07-29T09:41:12;98827.66;;;30.52;41.52
63447;BME280;49577;49.872;6.190;2023-07-29T09:43:39;98839.99;;;29.60;43.26
63447;BME280;49577;49.872;6.190;2023-07-29T09:46:04;98851.25;;;28.46;45.39
63447;BME280;49577;49.872;6.190;2023-07-29T09:48:33;98857.00;;;27.42;48.05
63447;BME280;49577;49.872;6.190;2023-07-29T09:50:59;98845.02;;;26.38;50.57
63447;BME280;49577;49.872;6.190;2023-07-29T09:53:24;98840.44;;;25.68;52.78
63447;BME280;49577;49.872;6.190;2023-07-29T09:55:49;98841.45;;;25.29;54.10
63447;BME280;49577;49.872;6.190;2023-07-29T09:58:18;98842.99;;;25.03;55.20
63447;BME280;49577;49.872;6.190;2023-07-29T10:00:44;98850.75;;;24.83;56.02
63447;BME280;49577;49.872;6.190;2023-07-29T10:03:10;98847.45;;;24.67;56.65
63447;BME280;49577;49.872;6.190;2023-07-29T10:05:35;98844.11;;;24.91;57.42
63447;BME280;49577;49.872;6.190;2023-07-29T10:08:00;98845.67;;;25.28;56.94
63447;BME280;49577;49.872;6.190;2023-07-29T10:10:26;98845.31;;;25.68;57.20
63447;BME280;49577;49.872;6.190;2023-07-29T10:12:52;98849.27;;;26.24;56.23
63447;BME280;49577;49.872;6.190;2023-07-29T10:15:18;98853.54;;;27.27;54.97
63447;BME280;49577;49.872;6.190;2023-07-29T10:17:43;98851.43;;;28.08;52.59
63447;BME280;49577;49.872;6.190;2023-07-29T10:20:11;98847.90;;;28.45;51.60
63447;BME280;49577;49.872;6.190;2023-07-29T10:22:37;98840.20;;;28.84;50.19
63447;BME280;49577;49.872;6.190;2023-07-29T10:25:18;98833.91;;;29.36;49.49
63447;BME280;49577;49.872;6.190;2023-07-29T10:30:13;98838.02;;;30.22;48.22
63447;BME280;49577;49.872;6.190;2023-07-29T10:32:38;98833.83;;;30.57;46.81
63447;BME280;49577;49.872;6.190;2023-07-29T10:35:06;98833.98;;;30.75;47.08
63447;BME280;49577;49.872;6.190;2023-07-29T10:37:31;98833.39;;;30.98;45.67
63447;BME280;49577;49.872;6.190;2023-07-29T10:39:57;98833.91;;;30.97;44.89
63447;BME280;49577;49.872;6.190;2023-07-29T10:42:22;98834.81;;;31.14;44.61
63447;BME280;49577;49.872;6.190;2023-07-29T10:44:48;98837.36;;;31.69;43.35
63447;BME280;49577;49.872;6.190;2023-07-29T10:47:23;98833.16;;;32.01;41.54
63447;BME280;49577;49.872;6.190;2023-07-29T10:49:50;98826.04;;;32.42;41.98
63447;BME280;49577;49.872;6.190;2023-07-29T10:52:17;98818.92;;;33.05;41.00
63447;BME280;49577;49.872;6.190;2023-07-29T10:54:52;98819.14;;;33.48;39.32
63447;BME280;49577;49.872;6.190;2023-07-29T10:57:37;98816.73;;;33.83;37.98
63447;BME280;49577;49.872;6.190;2023-07-29T11:00:02;98814.64;;;34.29;37.09
63447;BME280;49577;49.872;6.190;2023-07-29T11:02:35;98811.39;;;34.38;36.29
63447;BME280;49577;49.872;6.190;2023-07-29T11:05:08;98808.48;;;34.32;36.56
63447;BME280;49577;49.872;6.190;2023-07-29T11:07:47;98810.92;;;34.16;36.43
63447;BME280;49577;49.872;6.190;2023-07-29T11:10:13;98814.88;;;33.94;36.76
63447;BME280;49577;49.872;6.190;2023-07-29T11:12:48;98820.79;;;33.50;36.61
63447;BME280;49577;49.872;6.190;2023-07-29T11:15:19;98823.64;;;33.05;37.38
63447;BME280;49577;49.872;6.190;2023-07-29T11:20:20;98821.89;;;31.84;38.68
63447;BME280;49577;49.872;6.190;2023-07-29T11:22:46;98824.48;;;31.61;38.57
63447;BME280;49577;49.872;6.190;2023-07-29T11:25:13;98822.17;;;31.01;38.38
63447;BME280;49577;49.872;6.190;2023-07-29T11:27:39;98818.33;;;31.18;38.12
63447;BME280;49577;49.872;6.190;2023-07-29T11:30:06;98819.61;;;31.53;37.47
63447;BME280;49577;49.872;6.190;2023-07-29T11:32:31;98826.77;;;31.97;37.35
63447;BME280;49577;49.872;6.190;2023-07-29T11:35:01;98831.05;;;32.17;36.75
63447;BME280;49577;49.872;6.190;2023-07-29T11:37:26;98828.16;;;32.10;35.44
63447;BME280;49577;49.872;6.190;2023-07-29T11:39:51;98822.05;;;31.80;34.95
63447;BME280;49577;49.872;6.190;2023-07-29T11:42:16;98822.20;;;31.42;35.24
63447;BME280;49577;49.872;6.190;2023-07-29T11:44:42;98814.60;;;31.08;35.80
63447;BME280;49577;49.872;6.190;2023-07-29T11:47:07;98815.23;;;30.79;37.24
63447;BME280;49577;49.872;6.190;2023-07-29T11:49:33;98812.15;;;30.63;37.55
63447;BME280;49577;49.872;6.190;2023-07-29T11:51:59;98810.82;;;30.39;38.38
63447;BME280;49577;49.872;6.190;2023-07-29T11:54:24;98807.89;;;30.25;38.38
63447;BME280;49577;49.872;6.190;2023-07-29T11:56:50;98809.64;;;30.20;38.35
63447;BME280;49577;49.872;6.190;2023-07-29T11:59:15;98804.38;;;30.08;37.70
63447;BME280;49577;49.872;6.190;2023-07-29T12:01:40;98804.23;;;29.89;37.79
63447;BME280;49577;49.872;6.190;2023-07-29T12:04:05;98798.27;;;29.89;37.82
63447;BME280;49577;49.872;6.190;2023-07-29T12:06:31;98799.27;;;29.89;38.02
63447;BME280;49577;49.872;6.190;2023-07-29T12:08:56;98793.55;;;29.87;37.91
63447;BME280;49577;49.872;6.190;2023-07-29T12:11:22;98789.38;;;29.81;38.24
63447;BME280;49577;49.872;6.190;2023-07-29T12:13:47;98785.92;;;29.85;38.38
63447;BME280;49577;49.872;6.190;2023-07-29T12:16:16;98782.89;;;29.78;37.67
63447;BME280;49577;49.872;6.190;2023-07-29T12:18:41;98782.48;;;29.52;37.10
63447;BME280;49577;49.872;6.190;2023-07-29T12:21:06;98777.61;;;29.24;37.43
63447;BME280;49577;49.872;6.190;2023-07-29T12:23:32;98778.17;;;29.23;38.15
63447;BME280;49577;49.872;6.190;2023-07-29T12:25:57;98775.76;;;29.33;37.69
63447;BME280;49577;49.872;6.190;2023-07-29T12:28:23;98773.25;;;29.20;38.12
63447;BME280;49577;49.872;6.190;2023-07-29T12:30:52;98770.84;;;29.05;38.42
63447;BME280;49577;49.872;6.190;2023-07-29T12:33:31;98773.30;;;29.07;38.88
63447;BME280;49577;49.872;6.190;2023-07-29T12:35:56;98774.64;;;29.24;38.98
63447;BME280;49577;49.872;6.190;2023-07-29T12:38:22;98776.29;;;29.28;38.52
63447;BME280;49577;49.872;6.190;2023-07-29T12:40:47;98771.96;;;29.39;38.45
63447;BME280;49577;49.872;6.190;2023-07-29T12:43:12;98770.29;;;29.37;37.94
63447;BME280;49577;49.872;6.190;2023-07-29T12:45:37;98767.22;;;29.27;38.59
63447;BME280;49577;49.872;6.190;2023-07-29T12:48:05;98772.63;;;29.20;38.49
63447;BME280;49577;49.872;6.190;2023-07-29T12:50:30;98772.92;;;29.07;37.55
63447;BME280;49577;49.872;6.190;2023-07-29T12:52:55;98772.31;;;28.88;38.02
63447;BME280;49577;49.872;6.190;2023-07-29T12:55:20;98771.56;;;28.79;38.48
63447;BME280;49577;49.872;6.190;2023-07-29T12:57:45;98770.10;;;28.74;39.02